Ria Da Coruna — EAGB — position and weather

sailwx.info

Track history (hours):
 
Tides and Currents Weather Stations Pressure Air Temp Water Temp Dewpoint Dewpoint Depression Visibility Wind Speed Wind Dir Waves Ship Positions

Ria Da Coruna

Last reported at 2017-Jul-26 00:38 UTC. Time now 2017-Jul-26 16:51 UTC.
Position N 43°58' W 005°03'.

Length 28 m.

Type: Fishing. MMSI: 224068650.

Date/timePositionNaut miles runAvg speedWind from/ knotsBaromVisibWave heightAir tempDewpointWater temp
2017-Jul-26 00:38N 43°58' W 005°03'  
2017-Jul-18 19:23N 44°10' W 001°51'7 8.4
2017-Jul-18 18:30N 44°12' W 002°01'6 7.9
2017-Jul-18 17:42N 44°14' W 002°10'2 8.1
2017-Jul-18 17:30N 44°15' W 002°12'13 3.8
2017-Jul-18 13:59N 44°21' W 002°29'1 1.3
2017-Jul-18 13:09N 44°22' W 002°28'29 6.1
2017-Jul-18 08:24N 43°55' W 002°15'4 9.9
2017-Jul-18 08:00N 43°51' W 002°14'5 9.8
2017-Jul-18 07:30N 43°46' W 002°13'510.1
2017-Jul-18 07:00N 43°41' W 002°12'4 7.9
2017-Jul-18 06:30N 43°37' W 002°12'5 9.7
2017-Jul-18 06:00N 43°32' W 002°12'14 6.1
2017-Jul-18 03:43N 43°18' W 002°12'0 0.0
2017-Jul-18 03:29N 43°18' W 002°12'0 0.0
2017-Jul-18 03:00N 43°18' W 002°12'0 0.0
2017-Jul-18 02:30N 43°18' W 002°12'0 0.0
2017-Jul-18 02:00N 43°18' W 002°12'0 0.0
2017-Jul-18 01:30N 43°18' W 002°12'0 0.0
2017-Jul-18 00:59N 43°18' W 002°12'24 7.3
2017-Jul-17 21:38N 43°43' W 002°17'1 9.7
2017-Jul-17 21:29N 43°44' W 002°17'46 3.1
2017-Jul-17 06:51N 44°29' W 002°08'1 2.1
2017-Jul-17 06:30N 44°30' W 002°08'48 4.1
2017-Jul-16 18:41N 43°45' W 001°44'2 9.0
2017-Jul-16 18:27N 43°43' W 001°46'4 9.1
2017-Jul-16 18:00N 43°40' W 001°49'8 9.4
2017-Jul-16 17:09N 43°33' W 001°56'1 9.4
2017-Jul-16 17:00N 43°32' W 001°57'  
Track history (hours):
 
Tides and Currents Weather Stations Pressure Air Temp Water Temp Dewpoint Dewpoint Depression Visibility Wind Speed Wind Dir Waves Ship Positions

Ria Da Coruna

Last reported at 2017-Jul-26 00:38 UTC. Time now 2017-Jul-26 16:51 UTC.
Position N 43°58' W 005°03'.

Length 28 m.

Type: Fishing. MMSI: 224068650.

Date/timePositionNaut miles runAvg speedWind from/ knotsBaromVisibWave heightAir tempDewpointWater temp
2017-Jul-26 00:38N 43°58' W 005°03'  
2017-Jul-18 19:23N 44°10' W 001°51'7 8.4
2017-Jul-18 18:30N 44°12' W 002°01'6 7.9
2017-Jul-18 17:42N 44°14' W 002°10'2 8.1
2017-Jul-18 17:30N 44°15' W 002°12'13 3.8
2017-Jul-18 13:59N 44°21' W 002°29'1 1.3
2017-Jul-18 13:09N 44°22' W 002°28'29 6.1
2017-Jul-18 08:24N 43°55' W 002°15'4 9.9
2017-Jul-18 08:00N 43°51' W 002°14'5 9.8
2017-Jul-18 07:30N 43°46' W 002°13'510.1
2017-Jul-18 07:00N 43°41' W 002°12'4 7.9
2017-Jul-18 06:30N 43°37' W 002°12'5 9.7
2017-Jul-18 06:00N 43°32' W 002°12'14 6.1
2017-Jul-18 03:43N 43°18' W 002°12'0 0.0
2017-Jul-18 03:29N 43°18' W 002°12'0 0.0
2017-Jul-18 03:00N 43°18' W 002°12'0 0.0
2017-Jul-18 02:30N 43°18' W 002°12'0 0.0
2017-Jul-18 02:00N 43°18' W 002°12'0 0.0
2017-Jul-18 01:30N 43°18' W 002°12'0 0.0
2017-Jul-18 00:59N 43°18' W 002°12'24 7.3
2017-Jul-17 21:38N 43°43' W 002°17'1 9.7
2017-Jul-17 21:29N 43°44' W 002°17'46 3.1
2017-Jul-17 06:51N 44°29' W 002°08'1 2.1
2017-Jul-17 06:30N 44°30' W 002°08'48 4.1
2017-Jul-16 18:41N 43°45' W 001°44'2 9.0
2017-Jul-16 18:27N 43°43' W 001°46'4 9.1
2017-Jul-16 18:00N 43°40' W 001°49'8 9.4
2017-Jul-16 17:09N 43°33' W 001°56'1 9.4
2017-Jul-16 17:00N 43°32' W 001°57'  

Dump ship's entire track history